Time;durP1;ratioP1;P1;durP2;ratioP2;P2;SDS_P1;SDS_P2;PMS_P1;PMS_P2;Temp;Humidity;BMP_temperature;BMP_pressure;BME280_temperature;BME280_humidity;BME280_pressure;Samples;Min_cycle;Max_cycle;Signal;HPM_P1;HPM_P2
2023/08/01 00:00:56;;;;;;;45.23;14.43;;;;;;;15.07;100.00;99764.94;4921272;29;20078;-93
2023/08/01 00:03:22;;;;;;;48.75;14.45;;;;;;;15.04;100.00;99747.19;4936937;29;20086;-92
2023/08/01 00:05:54;;;;;;;45.78;14.35;;;;;;;15.01;100.00;99755.09;4936608;29;20472;-92
2023/08/01 00:08:22;;;;;;;42.00;14.20;;;;;;;14.97;100.00;99745.78;4936389;29;20383;-92
2023/08/01 00:10:54;;;;;;;44.80;14.38;;;;;;;14.96;100.00;99758.63;4936509;29;20106;-92
2023/08/01 00:13:28;;;;;;;42.53;13.63;;;;;;;14.91;100.00;99742.22;4937168;29;20500;-93
2023/08/01 00:15:59;;;;;;;43.70;13.55;;;;;;;14.85;100.00;99733.25;4924943;29;20110;-92
2023/08/01 00:18:27;;;;;;;41.40;13.93;;;;;;;14.79;100.00;99747.94;4905931;29;20110;-92
2023/08/01 00:20:58;;;;;;;47.77;14.40;;;;;;;14.75;100.00;99752.34;4935894;29;20102;-93
2023/08/01 00:23:31;;;;;;;43.33;14.02;;;;;;;14.74;100.00;99758.88;4920607;29;20071;-93
2023/08/01 00:26:17;;;;;;;42.83;14.20;;;;;;;14.76;100.00;99742.22;4920673;29;20036;-92
2023/08/01 00:28:53;;;;;;;;;;;;;;;;;;;;;
2023/08/01 00:31:42;;;;;;;42.13;13.48;;;;;;;14.69;100.00;99742.47;4937588;29;20392;-93
2023/08/01 00:34:16;;;;;;;40.53;13.83;;;;;;;14.68;100.00;99735.38;4920214;29;20031;-92
2023/08/01 00:36:46;;;;;;;45.50;14.23;;;;;;;14.67;100.00;99733.75;4921245;29;20055;-92
2023/08/01 00:39:14;;;;;;;43.77;13.73;;;;;;;14.65;100.00;99736.75;4936225;29;20469;-93
2023/08/01 00:41:44;;;;;;;48.70;13.80;;;;;;;14.63;100.00;99732.63;4936848;29;20028;-93
2023/08/01 00:44:12;;;;;;;42.83;13.80;;;;;;;14.61;100.00;99732.91;4936248;29;20416;-93
2023/08/01 00:46:48;;;;;;;;;;;;;;;;;;;;;
2023/08/01 00:49:16;;;;;;;44.58;13.60;;;;;;;14.55;100.00;99731.22;4937345;29;20037;-92
2023/08/01 00:51:46;;;;;;;42.33;13.73;;;;;;;14.50;100.00;99734.75;4935620;29;20032;-93
2023/08/01 00:54:12;;;;;;;41.60;13.50;;;;;;;14.45;100.00;99734.72;4935688;29;20030;-93
2023/08/01 00:59:41;;;;;;;41.83;12.80;;;;;;;14.37;100.00;99741.53;4934491;29;20044;-93
2023/08/01 01:02:07;;;;;;;37.80;12.63;;;;;;;14.33;100.00;99739.63;4918072;29;20143;-93
2023/08/01 01:04:38;;;;;;;40.08;12.35;;;;;;;14.29;100.00;99733.06;4901302;29;20531;-93
2023/08/01 01:07:15;;;;;;;44.17;12.90;;;;;;;14.26;100.00;99733.59;4933191;29;20051;-93
2023/08/01 01:09:56;;;;;;;42.17;13.30;;;;;;;14.20;100.00;99722.66;4916569;29;20033;-93
2023/08/01 01:12:30;;;;;;;41.10;13.02;;;;;;;14.16;100.00;99726.19;4934619;29;20104;-92
2023/08/01 01:14:58;;;;;;;40.97;12.43;;;;;;;14.13;100.00;99723.97;4936140;29;20090;-93
2023/08/01 01:17:26;;;;;;;43.55;13.10;;;;;;;14.10;100.00;99725.34;4935793;29;20639;-92
2023/08/01 01:19:55;;;;;;;40.97;12.18;;;;;;;14.05;100.00;99722.59;4919567;29;20035;-93
2023/08/01 01:22:28;;;;;;;40.33;12.47;;;;;;;14.02;100.00;99731.31;4919873;29;20039;-92
2023/08/01 01:24:57;;;;;;;43.58;12.63;;;;;;;14.01;100.00;99732.38;4936054;29;20035;-93
2023/08/01 01:27:34;;;;;;;40.08;12.98;;;;;;;13.97;100.00;99726.66;4937023;29;20043;-93
2023/08/01 01:30:01;;;;;;;42.03;12.85;;;;;;;13.93;100.00;99730.97;4939573;29;20130;-93
2023/08/01 01:32:49;;;;;;;43.83;12.68;;;;;;;13.91;100.00;99721.47;4939392;29;20535;-92
2023/08/01 01:35:17;;;;;;;39.17;11.57;;;;;;;13.87;100.00;99732.06;4923411;29;20090;-93
2023/08/01 01:37:43;;;;;;;44.72;11.82;;;;;;;13.85;100.00;99726.88;4939241;29;20039;-92
2023/08/01 01:40:19;;;;;;;41.20;11.47;;;;;;;13.85;100.00;99718.69;4940300;29;20030;-93
2023/08/01 01:42:49;;;;;;;40.40;12.63;;;;;;;13.84;100.00;99722.50;4923478;29;20284;-92
2023/08/01 01:45:37;;;;;;;43.42;11.90;;;;;;;13.84;100.00;99722.50;4923818;29;20481;-93
2023/08/01 01:48:07;;;;;;;42.90;11.88;;;;;;;13.80;100.00;99715.94;4923742;29;20031;-92
2023/08/01 01:50:35;;;;;;;38.80;11.82;;;;;;;13.77;100.00;99721.09;4923281;29;20046;-93
2023/08/01 01:53:05;;;;;;;49.38;13.02;;;;;;;13.73;100.00;99719.97;4940484;29;20605;-92
2023/08/01 01:55:34;;;;;;;44.20;12.83;;;;;;;13.72;100.00;99724.63;4941386;29;20031;-93
2023/08/01 01:58:07;;;;;;;48.10;11.85;;;;;;;13.68;100.00;99718.88;4941143;29;20024;-93
2023/08/01 02:00:32;;;;;;;46.47;12.90;;;;;;;13.63;100.00;99720.75;4926021;29;20059;-92
2023/08/01 02:03:02;;;;;;;51.87;13.17;;;;;;;13.61;100.00;99721.00;4927850;29;20104;-93
2023/08/01 02:05:33;;;;;;;56.85;14.98;;;;;;;13.58;100.00;99728.88;4927766;29;20091;-92
2023/08/01 02:08:11;;;;;;;;;;;;;;;;;;;;;
2023/08/01 02:10:42;;;;;;;54.72;14.25;;;;;;;13.53;100.00;99717.97;4944243;29;20448;-93
2023/08/01 02:13:12;;;;;;;52.03;14.82;;;;;;;13.49;100.00;99718.47;4942471;29;20052;-92
2023/08/01 02:15:41;;;;;;;55.37;14.87;;;;;;;13.46;100.00;99713.56;4941181;29;20444;-93
2023/08/01 02:18:13;;;;;;;62.38;15.55;;;;;;;13.44;100.00;99721.16;4938770;29;20164;-92
2023/08/01 02:20:41;;;;;;;60.42;16.63;;;;;;;13.45;100.00;99722.81;4908043;29;20464;-93
2023/08/01 02:23:14;;;;;;;63.22;17.83;;;;;;;13.43;100.00;99721.41;4922959;29;20039;-92
2023/08/01 02:25:50;;;;;;;60.40;17.33;;;;;;;13.42;100.00;99717.88;4922702;29;20035;-93
2023/08/01 02:28:24;;;;;;;68.77;17.50;;;;;;;13.43;100.00;99719.50;4938459;29;20028;-93
2023/08/01 02:30:50;;;;;;;69.82;17.00;;;;;;;13.46;100.00;99716.28;4922968;29;20050;-93
2023/08/01 02:33:19;;;;;;;70.78;17.58;;;;;;;13.50;100.00;99722.81;4922294;29;20027;-94
2023/08/01 02:35:49;;;;;;;73.85;19.48;;;;;;;13.53;100.00;99717.97;4922489;29;20027;-93
2023/08/01 02:38:36;;;;;;;;;;;;;;;;;;;;;
2023/08/01 02:41:02;;;;;;;72.00;19.10;;;;;;;13.56;100.00;99729.13;4925497;29;20035;-93
2023/08/01 02:43:42;;;;;;;69.60;18.48;;;;;;;13.58;100.00;99724.28;4922967;29;20126;-93
2023/08/01 02:46:15;;;;;;;75.30;18.80;;;;;;;13.62;100.00;99738.97;4938446;29;20032;-93
2023/08/01 02:48:40;;;;;;;77.15;19.52;;;;;;;13.60;100.00;99734.91;4907295;29;20105;-93
2023/08/01 02:51:09;;;;;;;74.10;18.42;;;;;;;13.64;100.00;99752.34;4937302;29;20123;-93
2023/08/01 02:53:40;;;;;;;80.90;20.00;;;;;;;13.65;100.00;99754.81;4922176;29;20040;-93
2023/08/01 02:56:10;;;;;;;77.33;19.73;;;;;;;13.65;100.00;99734.91;4921858;29;20035;-93
2023/08/01 02:59:04;;;;;;;81.90;20.50;;;;;;;13.68;100.00;99745.28;4937832;29;20035;-93
2023/08/01 03:01:30;;;;;;;85.47;20.90;;;;;;;13.69;100.00;99745.03;4937477;29;20075;-93
2023/08/01 03:04:11;;;;;;;;;;;;;;;;;;;;;
2023/08/01 03:06:47;;;;;;;88.30;22.15;;;;;;;13.68;100.00;99728.94;4938927;29;20052;-93
2023/08/01 03:09:17;;;;;;;82.93;19.73;;;;;;;13.69;100.00;99725.13;4907179;29;20028;-93
2023/08/01 03:11:43;;;;;;;90.07;21.63;;;;;;;13.71;100.00;99728.41;4922096;29;20036;-93
2023/08/01 03:14:16;;;;;;;89.77;21.07;;;;;;;13.68;100.00;99729.78;4921905;29;20099;-93
2023/08/01 03:16:52;;;;;;;82.97;21.30;;;;;;;13.66;100.00;99734.66;4922510;29;20035;-94
2023/08/01 03:19:18;;;;;;;91.40;22.70;;;;;;;13.69;100.00;99738.78;4937686;29;20067;-93
2023/08/01 03:21:49;;;;;;;90.30;22.50;;;;;;;13.69;100.00;99725.13;4937305;29;20050;-93
2023/08/01 03:24:18;;;;;;;96.60;23.23;;;;;;;13.69;100.00;99722.41;4921964;29;20028;-93
2023/08/01 03:26:47;;;;;;;92.40;24.60;;;;;;;13.69;100.00;99733.31;4921208;29;20034;-93
2023/08/01 03:29:18;;;;;;;93.88;23.70;;;;;;;13.72;100.00;99737.44;4905501;29;20094;-94
2023/08/01 03:31:44;;;;;;;95.10;23.55;;;;;;;13.71;100.00;99735.78;4937184;29;20560;-93
2023/08/01 03:34:20;;;;;;;103.23;25.43;;;;;;;13.68;100.00;99735.22;4921183;29;20123;-93
2023/08/01 03:36:46;;;;;;;106.97;26.90;;;;;;;13.69;100.00;99736.84;4922323;29;20044;-93
2023/08/01 03:39:11;;;;;;;100.80;25.87;;;;;;;13.72;100.00;99740.97;4937161;29;20119;-92
2023/08/01 03:41:38;;;;;;;106.40;27.67;;;;;;;13.73;100.00;99731.72;4920963;29;20496;-93
2023/08/01 03:44:06;;;;;;;116.10;27.83;;;;;;;13.74;100.00;99736.06;4921219;29;20298;-93
2023/08/01 03:46:32;;;;;;;108.65;28.58;;;;;;;13.74;100.00;99746.16;4937027;29;20064;-93
2023/08/01 03:49:00;;;;;;;115.53;30.17;;;;;;;13.73;100.00;99737.16;4936617;29;20396;-93
2023/08/01 03:51:26;;;;;;;108.45;26.90;;;;;;;13.72;100.00;99740.97;4920188;29;20291;-93
2023/08/01 03:53:57;;;;;;;110.32;30.45;;;;;;;13.74;100.00;99744.25;4936511;29;20028;-93
2023/08/01 03:56:27;;;;;;;117.93;28.67;;;;;;;13.76;100.00;99753.00;4921189;29;20138;-93
2023/08/01 03:58:56;;;;;;;109.88;30.35;;;;;;;13.75;100.00;99740.44;4937118;29;20028;-93
2023/08/01 04:01:22;;;;;;;111.85;30.23;;;;;;;13.75;100.00;99740.44;4936272;29;20073;-94
2023/08/01 04:03:49;;;;;;;108.00;29.37;;;;;;;13.75;100.00;99739.63;4936451;29;20034;-93
2023/08/01 04:06:25;;;;;;;;;;;;;;;;;;;;;
2023/08/01 04:09:00;;;;;;;109.97;28.55;;;;;;;13.75;100.00;99737.72;4922320;29;20042;-93
2023/08/01 04:11:33;;;;;;;104.15;28.63;;;;;;;13.74;100.00;99736.06;4937127;29;20032;-93
2023/08/01 04:14:01;;;;;;;111.00;29.83;;;;;;;13.69;100.00;99734.13;4906226;29;20082;-93
2023/08/01 04:16:39;;;;;;;102.17;29.30;;;;;;;13.68;100.00;99739.84;4920896;29;20039;-93
2023/08/01 04:19:10;;;;;;;105.55;28.88;;;;;;;13.68;100.00;99740.69;4905438;29;20035;-93
2023/08/01 04:21:43;;;;;;;104.43;29.02;;;;;;;13.69;100.00;99742.31;4936380;29;20028;-93
2023/08/01 04:24:25;;;;;;;102.28;29.23;;;;;;;13.72;100.00;99732.78;4920710;29;20039;-93
2023/08/01 04:27:00;;;;;;;108.15;28.80;;;;;;;13.70;100.00;99732.25;4936572;29;20369;-93
2023/08/01 04:29:28;;;;;;;103.03;26.80;;;;;;;13.74;100.00;99736.06;4905931;29;20044;-93
2023/08/01 04:31:59;;;;;;;107.18;27.95;;;;;;;13.77;100.00;99734.72;4920650;29;20056;-93
2023/08/01 04:34:48;;;;;;;105.13;28.40;;;;;;;13.79;100.00;99729.81;4936653;29;20185;-93
2023/08/01 04:37:25;;;;;;;;;;;;;;;;;;;;;
2023/08/01 04:40:07;;;;;;;103.55;28.08;;;;;;;13.84;100.00;99747.03;4937991;29;20027;-94
2023/08/01 04:42:38;;;;;;;103.97;27.57;;;;;;;13.87;100.00;99751.13;4936243;29;20035;-95
2023/08/01 04:45:16;;;;;;;102.85;27.20;;;;;;;13.83;100.00;99730.94;4920621;29;20051;-94
2023/08/01 04:47:45;;;;;;;104.50;28.38;;;;;;;13.86;100.00;99754.94;4920516;29;20040;-94
2023/08/01 04:50:21;;;;;;;102.63;28.52;;;;;;;13.89;100.00;99745.41;4935897;29;20079;-94
2023/08/01 04:52:54;;;;;;;104.40;29.33;;;;;;;13.91;100.00;99749.53;4936397;29;20051;-94
2023/08/01 04:55:32;;;;;;;;;;;;;;;;;;;;;
2023/08/01 05:01:34;;;;;;;93.45;27.77;;;;;;;13.95;100.00;99763.44;4929094;29;20060;-94
2023/08/01 05:04:03;;;;;;;88.55;27.67;;;;;;;13.94;100.00;99756.38;4924587;29;20545;-94
2023/08/01 05:06:42;;;;;;;;;;;;;;;;;;;;;
2023/08/01 05:09:10;;;;;;;81.80;25.87;;;;;;;13.94;100.00;99757.19;4941239;29;20031;-94
2023/08/01 05:12:00;;;;;;;81.38;26.15;;;;;;;13.94;100.00;99753.66;4924373;29;20030;-94
2023/08/01 05:14:38;;;;;;;79.30;26.15;;;;;;;13.97;100.00;99758.56;4940437;29;20556;-94
2023/08/01 05:17:07;;;;;;;76.40;23.83;;;;;;;13.98;100.00;99762.91;4940022;29;20475;-94
2023/08/01 05:19:56;;;;;;;71.25;24.48;;;;;;;13.97;100.00;99758.56;4939849;29;20033;-94
2023/08/01 05:22:36;;;;;;;78.83;24.40;;;;;;;13.95;100.00;99760.72;4940720;29;20031;-94
2023/08/01 05:25:49;;;;;;;;;;;;;;;;;;;;;
2023/08/01 05:28:15;;;;;;;73.47;24.67;;;;;;;13.90;100.00;99758.78;4941044;29;20464;-96
2023/08/01 05:30:40;;;;;;;69.32;24.45;;;;;;;13.88;100.00;99758.25;4940506;29;20034;-96
2023/08/01 05:33:08;;;;;;;63.50;24.60;;;;;;;13.90;100.00;99763.44;4940930;29;20027;-96
2023/08/01 05:35:36;;;;;;;56.47;22.70;;;;;;;13.93;100.00;99780.06;4941216;29;20027;-95
2023/08/01 05:38:02;;;;;;;61.38;23.95;;;;;;;13.98;100.00;99774.66;4925365;29;20064;-96
2023/08/01 05:40:27;;;;;;;63.17;23.53;;;;;;;14.00;100.00;99764.28;4923367;29;20054;-93
2023/08/01 05:42:53;;;;;;;57.53;21.30;;;;;;;14.00;100.00;99772.47;4908342;29;20118;-95
2023/08/01 05:45:21;;;;;;;59.88;23.25;;;;;;;14.03;100.00;99768.41;4923500;29;20028;-92
2023/08/01 05:47:56;;;;;;;60.53;22.02;;;;;;;14.07;100.00;99764.06;4939172;29;20040;-92
2023/08/01 05:50:28;;;;;;;62.83;23.03;;;;;;;14.12;100.00;99766.81;4923474;29;20048;-93
2023/08/01 05:52:59;;;;;;;58.13;22.30;;;;;;;14.16;100.00;99772.56;4939305;29;20066;-92
2023/08/01 05:55:24;;;;;;;59.63;22.55;;;;;;;14.22;100.00;99776.97;4940232;29;20126;-92
2023/08/01 05:57:53;;;;;;;53.17;22.97;;;;;;;14.26;100.00;99780.81;4938629;29;20204;-90
2023/08/01 06:00:21;;;;;;;59.58;22.95;;;;;;;14.41;100.00;99784.66;4922705;29;20075;-92
2023/08/01 06:02:49;;;;;;;58.58;22.40;;;;;;;14.50;100.00;99780.34;4938666;29;20460;-91
2023/08/01 06:05:15;;;;;;;47.92;20.95;;;;;;;14.67;100.00;99785.59;4938063;29;20031;-91
2023/08/01 06:07:41;;;;;;;53.43;22.40;;;;;;;14.74;100.00;99786.19;4938124;29;20028;-87
2023/08/01 06:10:07;;;;;;;44.53;19.70;;;;;;;14.86;100.00;99781.28;4937803;29;20319;-86
2023/08/01 06:12:35;;;;;;;43.28;19.08;;;;;;;14.85;100.00;99781.56;4921572;29;20393;-87
2023/08/01 06:15:00;;;;;;;38.60;18.67;;;;;;;14.83;100.00;99791.94;4920514;29;20087;-86
2023/08/01 06:17:26;;;;;;;47.03;19.60;;;;;;;14.88;100.00;99790.03;4921837;29;20481;-86
2023/08/01 06:19:52;;;;;;;40.30;19.37;;;;;;;14.85;100.00;99790.59;4952980;29;20036;-86
2023/08/01 06:22:17;;;;;;;40.80;19.77;;;;;;;14.81;100.00;99792.22;4938151;29;20038;-86
2023/08/01 06:24:43;;;;;;;40.60;19.43;;;;;;;14.73;100.00;99796.28;4938153;29;20465;-86
2023/08/01 06:27:08;;;;;;;43.47;19.47;;;;;;;14.72;100.00;99796.56;4938607;29;20023;-86
2023/08/01 06:29:37;;;;;;;44.85;20.75;;;;;;;14.68;100.00;99804.44;4937080;29;20063;-86
2023/08/01 06:32:03;;;;;;;48.80;20.80;;;;;;;14.69;100.00;99797.06;4953439;29;20079;-86
2023/08/01 06:34:28;;;;;;;46.83;21.83;;;;;;;14.71;100.00;99797.63;4938924;29;20035;-86
2023/08/01 06:36:54;;;;;;;48.53;21.20;;;;;;;14.79;100.00;99802.56;4938420;29;20480;-86
2023/08/01 06:39:19;;;;;;;44.60;19.87;;;;;;;14.73;100.00;99803.63;4937115;29;20381;-85
2023/08/01 06:41:45;;;;;;;45.08;20.23;;;;;;;14.72;100.00;99794.63;4937328;29;20032;-86
2023/08/01 06:44:10;;;;;;;46.47;20.23;;;;;;;14.71;100.00;99805.84;4936958;29;20091;-85
2023/08/01 06:46:35;;;;;;;42.90;21.03;;;;;;;14.83;100.00;99808.31;4937494;29;20031;-85
2023/08/01 06:49:01;;;;;;;42.97;19.40;;;;;;;14.88;100.00;99800.97;4937257;29;20060;-86
2023/08/01 06:51:27;;;;;;;42.08;19.20;;;;;;;14.96;100.00;99805.06;4937966;29;20043;-85
2023/08/01 06:53:52;;;;;;;36.67;18.20;;;;;;;14.99;100.00;99806.44;4938392;29;20479;-85
2023/08/01 06:56:18;;;;;;;33.27;17.87;;;;;;;14.96;100.00;99816.00;4937361;29;20067;-85
2023/08/01 06:58:43;;;;;;;35.15;16.45;;;;;;;14.93;100.00;99823.94;4936997;29;20040;-85
2023/08/01 07:01:40;;;;;;;30.07;14.60;;;;;;;14.91;100.00;99813.25;4936514;29;20059;-95
2023/08/01 07:04:08;;;;;;;29.10;15.57;;;;;;;14.90;100.00;99825.28;4922503;29;20036;-94
2023/08/01 07:06:44;;;;;;;30.50;14.87;;;;;;;14.95;100.00;99835.38;4938109;29;20039;-94
2023/08/01 07:09:22;;;;;;;25.38;14.20;;;;;;;15.05;100.00;99822.56;4907955;29;20040;-94
2023/08/01 07:11:47;;;;;;;30.40;14.55;;;;;;;15.23;100.00;99834.06;4954292;29;20043;-95
2023/08/01 07:14:19;;;;;;;20.02;12.75;;;;;;;15.45;100.00;99825.63;4937812;29;20027;-94
2023/08/01 07:16:55;;;;;;;27.80;12.47;;;;;;;15.59;100.00;99825.91;4937802;29;20036;-94
2023/08/01 07:19:33;;;;;;;20.83;11.15;;;;;;;15.83;100.00;99825.38;4938055;29;20051;-94
2023/08/01 07:22:11;;;;;;;21.10;10.95;;;;;;;15.89;100.00;99830.56;4938370;29;20035;-95
2023/08/01 07:25:07;;;;;;;23.80;9.82;;;;;;;15.93;100.00;99819.91;4953384;28;20075;-95
2023/08/01 07:27:38;;;;;;;17.70;9.18;;;;;;;15.92;100.00;99819.06;4918872;29;20040;-94
2023/08/01 07:30:20;;;;;;;;;;;;;;;;;;;;;
2023/08/01 07:35:56;;;;;;;;;;;;;;;;;;;;;
2023/08/01 07:38:34;;;;;;;;;;;;;;;;;;;;;
2023/08/01 07:41:04;;;;;;;14.93;8.30;;;;;;;16.07;100.00;99842.03;4938612;29;20050;-94
2023/08/01 07:43:45;;;;;;;;;;;;;;;;;;;;;
2023/08/01 07:46:11;;;;;;;15.43;7.75;;;;;;;16.16;100.00;99829.41;4938064;29;20065;-94
2023/08/01 07:48:40;;;;;;;14.15;6.78;;;;;;;16.03;100.00;99832.72;4936956;29;20143;-95
2023/08/01 07:51:11;;;;;;;14.87;6.57;;;;;;;16.09;100.00;99839.81;4952600;29;20131;-95
2023/08/01 07:53:45;;;;;;;15.07;5.55;;;;;;;16.09;100.00;99840.66;4952686;29;20038;-95
2023/08/01 07:56:51;;;;;;;11.77;5.28;;;;;;;16.33;100.00;99842.78;4953117;29;20480;-95
2023/08/01 07:59:25;;;;;;;15.10;4.63;;;;;;;16.45;100.00;99843.28;4924058;29;20477;-95
2023/08/01 08:02:00;;;;;;;10.48;4.32;;;;;;;16.44;100.00;99836.16;4952060;29;20048;-95
2023/08/01 08:04:35;;;;;;;9.97;4.50;;;;;;;16.43;100.00;99820.84;4923154;29;20039;-95
2023/08/01 08:07:06;;;;;;;12.30;4.50;;;;;;;16.30;100.00;99838.69;4953011;29;20032;-95
2023/08/01 08:09:38;;;;;;;10.27;4.45;;;;;;;16.27;100.00;99858.41;4921146;29;20055;-95
2023/08/01 08:12:08;;;;;;;12.00;4.43;;;;;;;16.24;100.00;99841.69;4952685;29;20141;-95
2023/08/01 08:14:39;;;;;;;11.57;4.32;;;;;;;16.18;100.00;99846.38;4921487;29;20035;-95
2023/08/01 08:17:17;;;;;;;12.00;4.87;;;;;;;16.25;100.00;99854.28;4952652;29;20032;-95
2023/08/01 08:19:49;;;;;;;8.32;4.68;;;;;;;16.34;100.00;99824.44;4952413;29;20040;-95
2023/08/01 08:22:19;;;;;;;9.60;4.50;;;;;;;16.41;100.00;99844.94;4952921;29;20066;-95
2023/08/01 08:24:48;;;;;;;12.52;4.65;;;;;;;16.49;100.00;99830.69;4952683;29;20027;-95
2023/08/01 08:27:16;;;;;;;9.55;4.40;;;;;;;16.66;100.00;99854.16;4952167;29;20035;-95
2023/08/01 08:29:57;;;;;;;;;;;;;;;;;;;;;
2023/08/01 08:32:41;;;;;;;10.13;4.82;;;;;;;17.17;100.00;99861.34;4938499;29;20027;-95
2023/08/01 08:35:14;;;;;;;10.00;4.72;;;;;;;17.50;100.00;99847.94;4936855;29;20469;-96
2023/08/01 08:37:51;;;;;;;10.90;4.55;;;;;;;17.74;100.00;99831.56;4936492;29;20032;-96
2023/08/01 08:40:21;;;;;;;9.40;4.40;;;;;;;17.36;100.00;99839.53;4955444;29;20035;-96
2023/08/01 08:45:57;;;;;;;9.57;3.85;;;;;;;16.68;100.00;99849.22;4937651;29;20043;-96
2023/08/01 08:48:41;;;;;;;11.88;4.85;;;;;;;16.39;100.00;99857.28;4952556;29;20024;-96
2023/08/01 08:51:17;;;;;;;;;;;;;;;;;;;;;
2023/08/01 08:53:58;;;;;;;;;;;;;;;;;;;;;
2023/08/01 08:56:28;;;;;;;16.10;4.60;;;;;;;15.26;100.00;99872.63;4937538;29;20384;-96
2023/08/01 08:59:01;;;;;;;9.82;4.53;;;;;;;15.22;100.00;99866.06;4951762;29;20040;-96
2023/08/01 09:01:36;;;;;;;10.75;4.03;;;;;;;15.28;100.00;99877.81;4952661;29;20501;-95
2023/08/01 09:04:19;;;;;;;11.60;3.88;;;;;;;15.13;100.00;99864.09;4952603;29;20067;-96
2023/08/01 09:07:04;;;;;;;;;;;;;;;;;;;;;
2023/08/01 09:09:35;;;;;;;6.10;2.83;;;;;;;14.83;100.00;99869.22;4937047;29;20487;-93
2023/08/01 09:12:03;;;;;;;8.68;3.53;;;;;;;14.75;100.00;99869.75;4935912;29;20413;-93
2023/08/01 09:14:36;;;;;;;7.53;3.05;;;;;;;14.68;100.00;99891.00;4935703;29;20087;-95
2023/08/01 09:17:08;;;;;;;10.77;3.42;;;;;;;14.63;100.00;99874.59;4905163;29;20572;-95
2023/08/01 09:19:45;;;;;;;8.23;3.28;;;;;;;14.57;100.00;99887.34;4932027;29;20118;-95
2023/08/01 09:22:19;;;;;;;11.80;4.50;;;;;;;14.61;100.00;99898.56;4926699;29;20143;-94
2023/08/01 09:25:04;;;;;;;8.75;4.55;;;;;;;14.62;100.00;99887.41;4936734;29;20465;-94
2023/08/01 09:27:57;;;;;;;13.18;4.68;;;;;;;14.61;100.00;99907.59;4922766;29;20047;-95
2023/08/01 09:30:32;;;;;;;11.90;5.10;;;;;;;14.61;100.00;99896.69;4936272;29;20035;-96
2023/08/01 09:33:06;;;;;;;14.77;4.82;;;;;;;14.57;100.00;99893.66;4936730;29;20035;-95
2023/08/01 09:36:04;;;;;;;;;;;;;;;;;;;;;
2023/08/01 09:38:35;;;;;;;5.55;2.30;;;;;;;14.19;100.00;99909.25;4918313;29;20396;-96
2023/08/01 09:41:24;;;;;;;6.95;2.03;;;;;;;14.02;100.00;99886.75;4935345;29;20031;-96
2023/08/01 09:44:06;;;;;;;13.18;2.13;;;;;;;13.99;100.00;99892.72;4935174;29;20024;-96
2023/08/01 09:46:34;;;;;;;6.78;2.40;;;;;;;14.11;100.00;99898.00;4930670;29;20492;-96
2023/08/01 09:49:19;;;;;;;7.33;2.07;;;;;;;14.29;100.00;99904.94;4929154;29;20107;-96
2023/08/01 09:51:59;;;;;;;8.52;3.10;;;;;;;14.52;100.00;99912.72;4951783;29;20038;-95
2023/08/01 09:54:27;;;;;;;8.07;3.05;;;;;;;14.66;100.00;99904.06;4937960;29;20040;-96
2023/08/01 09:57:08;;;;;;;;;;;;;;;;;;;;;
2023/08/01 10:00:03;;;;;;;;;;;;;;;;;;;;;
2023/08/01 10:02:55;;;;;;;;;;;;;;;;;;;;;
2023/08/01 10:05:24;;;;;;;11.68;3.40;;;;;;;15.86;100.00;99909.63;4939291;29;20034;-94
2023/08/01 10:08:03;;;;;;;10.02;3.50;;;;;;;15.78;100.00;99916.44;4934662;29;20043;-94
2023/08/01 10:10:35;;;;;;;12.30;3.28;;;;;;;15.75;100.00;99915.06;4939429;29;20126;-94
2023/08/01 10:13:04;;;;;;;11.35;3.83;;;;;;;15.86;100.00;99901.41;4938572;29;20114;-95
2023/08/01 10:19:30;;;;;;;10.65;3.70;;;;;;;16.64;100.00;99908.41;4936963;29;20043;-95
2023/08/01 10:22:32;;;;;;;10.80;4.35;;;;;;;17.07;100.00;99919.75;4922701;29;20073;-95
2023/08/01 10:25:28;;;;;;;9.88;3.50;;;;;;;16.97;100.00;99906.91;4939255;29;20122;-96
2023/08/01 10:32:04;;;;;;;11.43;3.43;;;;;;;16.75;100.00;99911.91;4898802;29;20110;-96
2023/08/01 10:35:39;;;;;;;10.45;3.30;;;;;;;16.58;100.00;99917.72;4928023;29;20043;-96
2023/08/01 10:38:39;;;;;;;;;;;;;;;;;;;;;
2023/08/01 10:41:11;;;;;;;8.05;2.90;;;;;;;16.70;100.00;99922.88;4937202;29;20042;-95
2023/08/01 10:43:39;;;;;;;9.65;3.10;;;;;;;16.65;100.00;99924.56;4925125;29;20047;-95
2023/08/01 10:46:21;;;;;;;;;;;;;;;;;;;;;
2023/08/01 10:49:16;;;;;;;12.82;3.72;;;;;;;16.58;100.00;99918.53;4939449;29;20031;-96
2023/08/01 10:51:58;;;;;;;12.75;3.25;;;;;;;16.40;100.00;99916.38;4938093;29;20063;-95
2023/08/01 10:55:03;;;;;;;7.60;3.20;;;;;;;16.35;100.00;99930.91;4923454;29;20032;-96
2023/08/01 10:58:04;;;;;;;;;;;;;;;;;;;;;
2023/08/01 11:00:57;;;;;;;11.20;3.43;;;;;;;16.90;100.00;99939.28;4939429;29;20111;-95
2023/08/01 11:03:48;;;;;;;9.55;2.60;;;;;;;16.83;100.00;99945.03;4918223;29;20075;-96
2023/08/01 11:06:18;;;;;;;10.63;3.10;;;;;;;16.79;100.00;99941.19;4915463;29;20130;-96
2023/08/01 11:08:49;;;;;;;9.38;2.95;;;;;;;16.63;100.00;99953.31;4922568;29;20498;-96
2023/08/01 11:12:01;;;;;;;10.27;2.70;;;;;;;16.12;100.00;99952.28;4923159;29;20472;-95
2023/08/01 11:14:59;;;;;;;9.80;2.80;;;;;;;15.82;100.00;99950.34;4939143;29;20048;-96
2023/08/01 11:18:08;;;;;;;9.45;2.90;;;;;;;15.38;100.00;99950.78;4921355;29;20476;-96
2023/08/01 11:21:16;;;;;;;9.30;2.70;;;;;;;15.29;100.00;99947.75;4936991;29;20480;-96
2023/08/01 11:27:28;;;;;;;;;;;;;;;;;;;;;
2023/08/01 11:30:13;;;;;;;12.53;3.00;;;;;;;15.30;100.00;99954.06;4912345;29;20036;-96
2023/08/01 11:33:08;;;;;;;12.13;2.97;;;;;;;15.35;100.00;99963.06;4924365;29;20091;-96
2023/08/01 11:35:50;;;;;;;14.27;3.47;;;;;;;15.39;100.00;99958.72;4932248;29;20552;-96
2023/08/01 11:38:39;;;;;;;10.65;3.00;;;;;;;15.63;100.00;99968.34;4937985;29;20441;-96
2023/08/01 11:41:23;;;;;;;11.75;3.40;;;;;;;15.84;100.00;99969.22;4923160;29;20035;-96
2023/08/01 11:44:04;;;;;;;9.30;3.10;;;;;;;16.25;100.00;99971.97;4938627;29;20022;-96
2023/08/01 11:46:39;;;;;;;12.15;3.35;;;;;;;16.78;100.00;99979.84;4922777;29;20035;-96
2023/08/01 11:49:23;;;;;;;7.72;2.50;;;;;;;17.28;100.00;99963.50;4938680;29;20556;-95
2023/08/01 11:54:45;;;;;;;9.80;2.60;;;;;;;21.27;100.00;99968.88;4923172;29;20063;-96
2023/08/01 11:57:11;;;;;;;6.73;2.40;;;;;;;21.55;89.84;99977.13;4944795;29;20032;-96
2023/08/01 12:07:17;;;;;;;;;;;;;;;;;;;;;
2023/08/01 12:13:32;;;;;;;5.07;1.83;;;;;;;22.86;76.02;99955.91;4879987;29;20093;-96
2023/08/01 12:16:19;;;;;;;7.50;2.08;;;;;;;22.41;72.19;99973.44;4880353;29;20049;-95
2023/08/01 12:18:53;;;;;;;3.25;1.52;;;;;;;22.69;70.15;99967.72;4866057;29;20048;-96
2023/08/01 12:21:26;;;;;;;7.10;2.20;;;;;;;23.22;68.43;99954.91;4864030;29;20045;-96
2023/08/01 12:24:43;;;;;;;;;;;;;;;;;;;;;
2023/08/01 12:27:24;;;;;;;6.88;1.83;;;;;;;23.07;62.25;99967.19;4882727;29;20124;-96
2023/08/01 12:29:55;;;;;;;5.32;1.73;;;;;;;25.54;54.67;99956.16;4879293;29;20053;-96
2023/08/01 12:32:29;;;;;;;7.10;1.88;;;;;;;27.14;50.30;99958.56;4865005;29;20068;-96
2023/08/01 12:34:58;;;;;;;5.23;1.70;;;;;;;28.05;47.65;99973.28;4889768;29;20447;-96
2023/08/01 12:52:58;;;;;;;7.60;2.30;;;;;;;24.42;54.38;99963.84;5084374;23;20057;-91
2023/08/01 12:55:28;;;;;;;5.05;2.15;;;;;;;24.86;55.37;99959.81;5021586;28;20025;-96
2023/08/01 12:58:19;;;;;;;6.65;1.85;;;;;;;25.42;53.01;99956.06;5037205;28;20124;-96
2023/08/01 13:01:31;;;;;;;;;;;;;;;;;;;;;
2023/08/01 13:04:01;;;;;;;10.80;2.63;;;;;;;27.56;48.51;99957.47;5025740;28;20117;-95
2023/08/01 13:06:37;;;;;;;;;;;;;;;;;;;;;
2023/08/01 13:09:07;;;;;;;8.88;2.38;;;;;;;24.85;54.41;99962.91;5054573;28;20111;-94
2023/08/01 13:11:45;;;;;;;;;;;;;;;;;;;;;
2023/08/01 13:14:18;;;;;;;7.87;2.20;;;;;;;24.86;53.64;99965.34;5054561;28;20040;-96
2023/08/01 13:16:47;;;;;;;9.70;2.60;;;;;;;26.67;48.24;99963.75;5034289;28;20561;-96
2023/08/01 13:19:18;;;;;;;7.93;1.70;;;;;;;28.48;43.88;99982.81;5033713;28;20115;-95
2023/08/01 13:21:53;;;;;;;;;;;;;;;;;;;;;
2023/08/01 13:24:21;;;;;;;6.40;1.70;;;;;;;29.77;39.27;99987.09;5057421;28;20027;-95